Kemp, TX (75143)

10:34 AM CST on December 03, 2016 (GMT -0600)
Tolosa-N5SER | | Change Station

Elev 420 ft 32.37 °N, 96.30 °W | Updated 7 seconds ago

Light Rain
Light Rain
50.0 °F
Feels Like 50.0 °F
N
1.8
Wind Variable Wind from ENE
Gusts 2.5 mph

Today
High -- | Low -- °F
--% Chance of Precip.
Yesterday
High -- | Low -- °F
Precip. -- in
Pressure 30.07 in
Visibility 10.0 miles
Clouds Overcast 900 ft
Dew Point 47 °F
Humidity 89%
Rainfall 0.00 in
Snow Depth Not available.
7:10 AM 5:19 PM
Waxing Crescent, 16% visible
METAR KTRL 031553Z AUTO 08014G19KT 10SM -RA OVC009 09/08 A3007 RMK AO2 CIG 006V012 SLP182 P0003 T00890078 TSNO
Pressure 30.07 in
Visibility 10.0 miles
Clouds Overcast 900 ft
Dew Point 47 °F
Humidity 89%
Rainfall 0.00 in
Snow Depth Not available.
7:10 AM 5:19 PM
Waxing Crescent, 16% visible
METAR KTRL 031553Z AUTO 08014G19KT 10SM -RA OVC009 09/08 A3007 RMK AO2 CIG 006V012 SLP182 P0003 T00890078 TSNO

10-Day Weather Forecast

Almanac

Astronomy

Dec. 03, 2016 Rise Set
Actual Time
Civil Twilight
Nautical Twilight
Astronomical Twilight
Moon
Length of Visible Light
Length of Day
Tomorrow will be .
, % of the Moon is Illuminated

Today's Extremes

State Highs State Lows

Community

WunderPhotos

Upload Photos

1,955,440 photos uploaded!

WunderBlog® & News

Nearby

Air Quality

  Air Quality AQ Index Pollutant
Not available.

Snow Depth

Station Depth Elevation

Earthquake Activity

City Distance Mag. Time & Date
Minimum magnitude displayed is 2.5.

Coastal Water Temperatures

Place Temperature

Stations

Nearby Weather Stations

Station Location Temp. Windchill Dew Point Humidity Wind Precip. Elev Updated Type
                   

Watches & Warnings

There are currently no watches in effect.